createdAt,value
2023-02-04T00:00:17.962Z,59.82
2023-02-04T00:02:47.287Z,58.42
2023-02-04T00:05:17.412Z,58.31
2023-02-04T00:07:45.208Z,57.74
2023-02-04T00:10:13.003Z,58.48
2023-02-04T00:12:40.801Z,57.54
2023-02-04T00:15:10.699Z,57.72
2023-02-04T00:17:39.373Z,57.76
2023-02-04T00:20:09.516Z,58.55
2023-02-04T00:22:37.310Z,58.20
2023-02-04T00:25:05.510Z,58.44
2023-02-04T00:27:33.359Z,58.46
2023-02-04T00:30:01.603Z,58.79
2023-02-04T00:32:29.334Z,58.89
2023-02-04T00:34:57.102Z,58.91
2023-02-04T00:37:26.215Z,59.45
2023-02-04T00:39:54.060Z,59.76
2023-02-04T00:42:21.870Z,59.21
2023-02-04T00:44:49.701Z,59.83
2023-02-04T00:47:18.130Z,59.75
2023-02-04T00:49:46.041Z,59.62
2023-02-04T00:52:13.819Z,59.26
2023-02-04T00:54:43.525Z,58.96
2023-02-04T00:57:11.299Z,60.95
2023-02-04T00:59:39.165Z,61.15
2023-02-04T01:02:07.028Z,60.52
2023-02-04T01:04:36.224Z,60.75
2023-02-04T01:07:04.051Z,59.79
2023-02-04T01:09:32.052Z,59.58
2023-02-04T01:12:01.191Z,60.37
2023-02-04T01:14:28.985Z,59.38
2023-02-04T01:16:56.785Z,60.28
2023-02-04T01:19:24.546Z,59.52
2023-02-04T01:21:52.382Z,59.57
2023-02-04T01:24:20.154Z,59.16
2023-02-04T01:27:09.539Z,58.62
2023-02-04T01:29:37.360Z,58.83
2023-02-04T01:32:05.268Z,59.85
2023-02-04T01:34:33.129Z,59.82
2023-02-04T01:37:00.902Z,60.20
2023-02-04T01:39:28.660Z,60.00
2023-02-04T01:41:56.489Z,60.70
2023-02-04T01:44:25.773Z,60.60
2023-02-04T01:46:53.631Z,59.84
2023-02-04T01:49:21.850Z,59.63
2023-02-04T01:51:49.740Z,59.78
2023-02-04T01:54:18.503Z,59.95
2023-02-04T01:56:49.051Z,59.87
2023-02-04T01:59:18.791Z,60.18
2023-02-04T02:01:49.550Z,60.16
2023-02-04T02:04:21.338Z,59.98
2023-02-04T02:06:53.839Z,59.92
2023-02-04T02:09:22.102Z,59.22
2023-02-04T02:11:50.123Z,59.61
2023-02-04T02:14:18.274Z,59.36
2023-02-04T02:16:47.507Z,59.10
2023-02-04T02:19:20.487Z,59.69
2023-02-04T02:21:55.405Z,60.08
2023-02-04T02:24:30.459Z,60.36
2023-02-04T02:27:01.653Z,60.13
2023-02-04T02:29:29.630Z,60.70
2023-02-04T02:31:58.635Z,60.64
2023-02-04T02:34:28.484Z,60.79
2023-02-04T02:36:56.803Z,59.54
2023-02-04T02:39:25.542Z,60.08
2023-02-04T02:41:56.016Z,60.35
2023-02-04T02:44:24.859Z,61.14
2023-02-04T02:46:52.991Z,60.53
2023-02-04T02:49:21.611Z,60.00
2023-02-04T02:51:50.065Z,59.73
2023-02-04T02:54:24.116Z,60.33
2023-02-04T02:56:56.273Z,60.30
2023-02-04T02:59:25.934Z,61.25
2023-02-04T03:01:57.950Z,61.30
2023-02-04T03:04:30.120Z,61.09
2023-02-04T03:06:58.030Z,60.68
2023-02-04T03:09:28.292Z,60.47
2023-02-04T03:11:57.577Z,60.60
2023-02-04T03:14:26.118Z,59.89
2023-02-04T03:16:55.896Z,60.03
2023-02-04T03:19:24.688Z,60.73
2023-02-04T03:21:52.799Z,59.92
2023-02-04T03:24:22.778Z,60.78
2023-02-04T03:26:50.620Z,60.98
2023-02-04T03:29:19.823Z,61.32
2023-02-04T03:31:47.806Z,61.43
2023-02-04T03:34:15.631Z,61.99
2023-02-04T03:36:43.404Z,61.54
2023-02-04T03:39:11.163Z,61.67
2023-02-04T03:41:38.902Z,60.99
2023-02-04T03:44:06.633Z,60.30
2023-02-04T03:46:35.878Z,60.42
2023-02-04T03:49:03.744Z,61.47
2023-02-04T03:51:31.472Z,61.53
2023-02-04T03:53:59.278Z,61.76
2023-02-04T03:56:27.053Z,61.34
2023-02-04T03:58:54.792Z,61.60
2023-02-04T04:01:22.590Z,61.40
2023-02-04T04:03:51.707Z,61.77
2023-02-04T04:06:19.488Z,62.04
2023-02-04T04:08:47.274Z,61.51
2023-02-04T04:11:15.403Z,61.29
2023-02-04T04:13:43.276Z,61.49
2023-02-04T04:16:11.041Z,61.68
2023-02-04T04:18:38.884Z,62.49
2023-02-04T04:21:08.199Z,62.52
2023-02-04T04:23:36.055Z,62.51
2023-02-04T04:26:03.820Z,62.96
2023-02-04T04:28:31.644Z,63.63
2023-02-04T04:30:59.558Z,63.72
2023-02-04T04:33:27.539Z,63.17
2023-02-04T04:35:55.372Z,62.40
2023-02-04T04:38:24.649Z,62.58
2023-02-04T04:40:52.469Z,62.61
2023-02-04T04:43:20.952Z,63.57
2023-02-04T04:45:48.851Z,63.74
2023-02-04T04:48:16.690Z,64.76
2023-02-04T04:50:44.403Z,64.49
2023-02-04T04:53:12.171Z,64.89
2023-02-04T04:55:41.474Z,63.53
2023-02-04T04:58:09.672Z,62.95
2023-02-04T05:00:37.480Z,62.74
2023-02-04T05:03:05.235Z,62.20
2023-02-04T05:05:34.038Z,63.27
2023-02-04T05:08:01.824Z,63.04
2023-02-04T05:10:29.762Z,61.92
2023-02-04T05:12:59.242Z,61.24
2023-02-04T05:15:27.097Z,61.13
2023-02-04T05:17:54.873Z,61.48
2023-02-04T05:20:22.760Z,62.66
2023-02-04T05:22:51.003Z,63.55
2023-02-04T05:25:18.865Z,62.95
2023-02-04T05:27:46.920Z,63.51
2023-02-04T05:30:16.597Z,63.73
2023-02-04T05:32:44.418Z,63.78
2023-02-04T05:35:12.300Z,64.24
2023-02-04T05:37:40.040Z,64.27
2023-02-04T05:40:09.028Z,63.26
2023-02-04T05:42:36.753Z,63.89
2023-02-04T05:45:04.925Z,63.74
2023-02-04T05:47:34.182Z,63.48
2023-02-04T05:50:01.918Z,62.62
2023-02-04T05:52:29.880Z,63.11
2023-02-04T05:54:57.673Z,63.05
2023-02-04T05:57:25.553Z,62.99
2023-02-04T05:59:53.336Z,64.00
2023-02-04T06:02:22.194Z,64.30
2023-02-04T06:04:51.347Z,64.05
2023-02-04T06:07:19.139Z,65.18
2023-02-04T06:09:46.867Z,63.02
2023-02-04T06:12:14.602Z,63.34
2023-02-04T06:14:42.371Z,62.64
2023-02-04T06:17:10.299Z,62.16
2023-02-04T06:19:38.284Z,62.32
2023-02-04T06:22:07.630Z,63.06
2023-02-04T06:24:36.039Z,62.69
2023-02-04T06:27:03.956Z,62.07
2023-02-04T06:29:31.761Z,62.20
2023-02-04T06:31:59.583Z,62.25
2023-02-04T06:34:27.400Z,62.00
2023-02-04T06:36:55.124Z,62.67
2023-02-04T06:39:24.396Z,63.15
2023-02-04T06:41:52.173Z,62.82
2023-02-04T06:44:19.939Z,62.98
2023-02-04T06:46:47.689Z,62.75
2023-02-04T06:49:15.474Z,62.70
2023-02-04T06:51:43.264Z,61.99
2023-02-04T06:54:11.211Z,61.72
2023-02-04T06:56:40.346Z,62.23
2023-02-04T06:59:08.070Z,62.63
2023-02-04T07:01:35.826Z,63.00
2023-02-04T07:04:03.643Z,62.09
2023-02-04T07:06:31.373Z,62.19
2023-02-04T07:08:59.138Z,62.10
2023-02-04T07:11:26.900Z,63.01
2023-02-04T07:13:56.049Z,62.83
2023-02-04T07:16:23.794Z,62.60
2023-02-04T07:18:51.518Z,62.59
2023-02-04T07:21:19.258Z,62.15
2023-02-04T07:23:47.026Z,62.60
2023-02-04T07:26:14.789Z,62.42
2023-02-04T07:28:43.489Z,62.58
2023-02-04T07:31:12.673Z,62.67
2023-02-04T07:33:40.472Z,62.46
2023-02-04T07:36:08.916Z,61.44
2023-02-04T07:38:36.740Z,61.22
2023-02-04T07:41:04.553Z,61.63
2023-02-04T07:43:32.405Z,61.03
2023-02-04T07:46:00.218Z,61.41
2023-02-04T07:48:29.343Z,62.24
2023-02-04T07:50:57.118Z,62.24
2023-02-04T07:53:24.858Z,61.55
2023-02-04T07:55:52.637Z,61.81
2023-02-04T07:58:20.496Z,61.83
2023-02-04T08:00:48.281Z,60.88
2023-02-04T08:03:16.057Z,60.88
2023-02-04T08:05:45.271Z,60.18
2023-02-04T08:08:13.145Z,60.90
2023-02-04T08:10:41.001Z,60.41
2023-02-04T08:13:08.911Z,60.42
2023-02-04T08:15:36.744Z,59.79
2023-02-04T08:18:04.924Z,60.10
2023-02-04T08:20:33.080Z,59.07
2023-02-04T08:23:03.235Z,59.45
2023-02-04T08:25:31.132Z,60.71
2023-02-04T08:27:58.899Z,61.91
2023-02-04T08:30:27.074Z,61.33
2023-02-04T08:32:54.848Z,61.12
2023-02-04T08:35:22.665Z,61.69
2023-02-04T08:37:50.448Z,62.62
2023-02-04T08:40:20.607Z,62.96
2023-02-04T08:42:48.649Z,61.65
2023-02-04T08:45:16.567Z,61.64
2023-02-04T08:47:44.371Z,60.94
2023-02-04T08:50:12.476Z,61.18
2023-02-04T08:52:40.386Z,61.46
2023-02-04T08:55:09.715Z,61.02
2023-02-04T08:57:38.903Z,61.26
2023-02-04T09:00:08.066Z,61.34
2023-02-04T09:02:35.879Z,60.62
2023-02-04T09:05:04.191Z,60.19
2023-02-04T09:07:31.942Z,61.31
2023-02-04T09:09:59.679Z,61.45
2023-02-04T09:12:27.524Z,59.65
2023-02-04T09:14:56.751Z,59.25
2023-02-04T09:17:24.591Z,59.00
2023-02-04T09:19:52.332Z,59.00
2023-02-04T09:22:20.120Z,58.08
2023-02-04T09:24:47.904Z,58.34
2023-02-04T09:27:15.646Z,58.98
2023-02-04T09:29:43.480Z,59.27
2023-02-04T09:32:12.704Z,58.08
2023-02-04T09:34:40.583Z,57.54
2023-02-04T09:37:08.579Z,56.53
2023-02-04T09:39:36.353Z,55.32
2023-02-04T09:42:04.343Z,55.25
2023-02-04T09:44:32.193Z,53.13
2023-02-04T09:47:01.952Z,53.09
2023-02-04T09:49:31.264Z,52.68
2023-02-04T09:52:00.338Z,52.29
2023-02-04T09:54:28.274Z,53.91
2023-02-04T09:56:57.457Z,53.87
2023-02-04T09:59:28.403Z,53.91
2023-02-04T10:02:00.885Z,54.21
2023-02-04T10:04:29.617Z,53.40
2023-02-04T10:06:59.519Z,52.94
2023-02-04T10:09:27.747Z,52.33
2023-02-04T10:11:55.727Z,51.88
2023-02-04T10:14:24.463Z,52.19
2023-02-04T10:16:59.107Z,52.91
2023-02-04T10:19:29.770Z,52.00
2023-02-04T10:21:59.425Z,50.94
2023-02-04T10:24:30.556Z,51.79
2023-02-04T10:27:08.696Z,51.28
2023-02-04T10:29:36.664Z,51.33
2023-02-04T10:32:05.064Z,50.73
2023-02-04T10:34:37.861Z,50.64
2023-02-04T10:37:20.490Z,51.69
2023-02-04T10:39:49.698Z,51.55
2023-02-04T10:42:22.932Z,50.86
2023-02-04T10:44:51.408Z,50.63
2023-02-04T10:47:21.521Z,49.32
2023-02-04T10:49:58.645Z,49.65
2023-02-04T10:52:35.170Z,49.85
2023-02-04T10:55:04.994Z,48.90
2023-02-04T10:57:36.144Z,49.48
2023-02-04T11:00:05.737Z,49.38
2023-02-04T11:02:43.302Z,50.00
2023-02-04T11:05:17.424Z,49.85
2023-02-04T11:07:49.409Z,50.09
2023-02-04T11:10:20.345Z,45.60
2023-02-04T11:13:00.688Z,49.13
2023-02-04T11:15:49.869Z,50.59
2023-02-04T11:18:31.175Z,51.90
2023-02-04T11:21:00.347Z,52.18
2023-02-04T11:23:36.267Z,51.66
2023-02-04T11:26:13.233Z,51.14
2023-02-04T11:29:04.378Z,53.09
2023-02-04T11:31:45.642Z,51.13
2023-02-04T11:34:28.906Z,51.93
2023-02-04T11:37:05.454Z,50.51
2023-02-04T11:39:38.324Z,50.23
2023-02-04T11:42:06.912Z,48.13
2023-02-04T11:44:35.215Z,47.85
2023-02-04T11:47:08.443Z,47.33
2023-02-04T11:49:37.946Z,46.67
2023-02-04T11:52:08.765Z,48.63
2023-02-04T11:54:38.034Z,49.88
2023-02-04T11:57:05.862Z,48.15
2023-02-04T11:59:33.830Z,47.16
2023-02-04T12:02:06.195Z,48.13
2023-02-04T12:04:34.084Z,49.08
2023-02-04T12:07:03.835Z,49.95
2023-02-04T12:09:32.780Z,50.57
2023-02-04T12:12:03.900Z,51.03
2023-02-04T12:14:34.520Z,50.80
2023-02-04T12:17:02.324Z,48.75
2023-02-04T12:19:30.153Z,48.89
2023-02-04T12:21:57.914Z,49.76
2023-02-04T12:24:25.726Z,48.13
2023-02-04T12:26:53.518Z,48.54
2023-02-04T12:29:22.658Z,47.17
2023-02-04T12:31:50.516Z,45.94
2023-02-04T12:34:18.406Z,47.12
2023-02-04T12:36:46.147Z,47.25
2023-02-04T12:39:14.036Z,46.45
2023-02-04T12:41:41.891Z,45.40
2023-02-04T12:44:09.656Z,45.64
2023-02-04T12:46:39.935Z,46.74
2023-02-04T12:49:09.607Z,45.74
2023-02-04T12:51:37.474Z,46.68
2023-02-04T12:54:05.611Z,47.41
2023-02-04T12:56:33.358Z,45.10
2023-02-04T12:59:01.212Z,44.70
2023-02-04T13:01:29.008Z,45.66
2023-02-04T13:03:58.111Z,46.85
2023-02-04T13:06:25.987Z,47.85
2023-02-04T13:08:53.728Z,48.47
2023-02-04T13:11:21.627Z,48.40
2023-02-04T13:13:49.438Z,46.86
2023-02-04T13:16:19.307Z,47.40
2023-02-04T13:18:47.112Z,45.91
2023-02-04T13:21:16.198Z,46.36
2023-02-04T13:23:44.116Z,47.61
2023-02-04T13:26:11.916Z,47.63
2023-02-04T13:28:39.675Z,47.49
2023-02-04T13:31:07.599Z,48.25
2023-02-04T13:33:35.440Z,47.09
2023-02-04T13:36:03.301Z,48.04
2023-02-04T13:38:32.417Z,47.36
2023-02-04T13:41:00.214Z,48.08
2023-02-04T13:43:27.973Z,47.42
2023-02-04T13:45:57.730Z,47.43
2023-02-04T13:48:25.947Z,47.99
2023-02-04T13:50:53.703Z,47.96
2023-02-04T13:53:21.484Z,47.37
2023-02-04T13:55:50.676Z,46.88
2023-02-04T13:58:18.470Z,47.44
2023-02-04T14:00:46.251Z,48.06
2023-02-04T14:03:14.082Z,48.55
2023-02-04T14:05:42.024Z,50.06
2023-02-04T14:08:09.895Z,49.88
2023-02-04T14:10:38.827Z,50.77
2023-02-04T14:13:08.220Z,50.38
2023-02-04T14:15:37.644Z,51.63
2023-02-04T14:18:05.726Z,50.37
2023-02-04T14:20:33.937Z,50.51
2023-02-04T14:23:01.925Z,51.07
2023-02-04T14:25:29.779Z,50.24
2023-02-04T14:28:00.004Z,50.50
2023-02-04T14:30:30.699Z,50.83
2023-02-04T14:32:59.107Z,50.01
2023-02-04T14:35:27.256Z,49.90
2023-02-04T14:37:55.167Z,50.90
2023-02-04T14:40:23.126Z,49.71
2023-02-04T14:42:50.944Z,49.96
2023-02-04T14:45:18.976Z,49.80
2023-02-04T14:47:48.264Z,49.35
2023-02-04T14:50:17.670Z,49.85
2023-02-04T14:52:45.499Z,48.82
2023-02-04T14:55:14.429Z,48.40
2023-02-04T14:57:42.321Z,48.21
2023-02-04T15:00:11.484Z,47.28
2023-02-04T15:02:40.182Z,47.27
2023-02-04T15:05:10.229Z,47.47
2023-02-04T15:07:38.788Z,48.09
2023-02-04T15:10:07.672Z,48.53
2023-02-04T15:12:35.627Z,47.47
2023-02-04T15:15:03.469Z,45.95
2023-02-04T15:17:31.318Z,43.65
2023-02-04T15:19:59.209Z,41.75
2023-02-04T15:22:28.309Z,42.22
2023-02-04T15:24:56.160Z,42.71
2023-02-04T15:27:24.391Z,43.32
2023-02-04T15:29:52.164Z,44.36
2023-02-04T15:32:19.981Z,45.40
2023-02-04T15:34:47.751Z,46.15
2023-02-04T15:37:16.048Z,46.34
2023-02-04T15:39:45.219Z,46.71
2023-02-04T15:42:13.093Z,46.69
2023-02-04T15:44:40.968Z,47.77
2023-02-04T15:47:08.830Z,48.52
2023-02-04T15:49:36.742Z,49.16
2023-02-04T15:52:08.887Z,49.15
2023-02-04T15:54:40.074Z,50.19
2023-02-04T15:57:09.345Z,50.27
2023-02-04T15:59:37.217Z,51.40
2023-02-04T16:02:04.992Z,51.95
2023-02-04T16:04:32.785Z,52.46
2023-02-04T16:07:00.838Z,51.57
2023-02-04T16:09:28.611Z,52.22
2023-02-04T16:11:56.451Z,53.34
2023-02-04T16:14:25.655Z,53.41
2023-02-04T16:16:53.503Z,53.65
2023-02-04T16:19:21.320Z,52.94
2023-02-04T16:21:49.095Z,53.39
2023-02-04T16:24:18.467Z,54.49
2023-02-04T16:26:46.455Z,56.18
2023-02-04T16:29:14.331Z,55.97
2023-02-04T16:31:43.539Z,54.43
2023-02-04T16:34:11.340Z,54.77
2023-02-04T16:36:39.095Z,55.33
2023-02-04T16:39:06.956Z,55.50
2023-02-04T16:41:34.776Z,56.31
2023-02-04T16:44:02.619Z,57.29
2023-02-04T16:46:33.581Z,55.61
2023-02-04T16:49:04.950Z,55.35
2023-02-04T16:51:32.777Z,56.87
2023-02-04T16:54:00.581Z,57.18
2023-02-04T16:56:35.058Z,56.44
2023-02-04T16:59:03.375Z,57.67
2023-02-04T17:01:31.809Z,56.51
2023-02-04T17:03:59.605Z,57.60
2023-02-04T17:06:30.438Z,58.26
2023-02-04T17:08:58.250Z,58.16
2023-02-04T17:11:29.882Z,58.31
2023-02-04T17:13:58.325Z,59.34
2023-02-04T17:16:26.462Z,59.40
2023-02-04T17:18:54.983Z,59.08
2023-02-04T17:21:23.013Z,59.72
2023-02-04T17:23:52.214Z,60.38
2023-02-04T17:26:20.479Z,60.47
2023-02-04T17:28:48.330Z,60.44
2023-02-04T17:31:16.187Z,59.93
2023-02-04T17:33:43.999Z,59.57
2023-02-04T17:36:13.698Z,60.05
2023-02-04T17:38:41.467Z,59.70
2023-02-04T17:41:10.677Z,59.69
2023-02-04T17:43:38.525Z,60.27
2023-02-04T17:46:06.472Z,60.85
2023-02-04T17:48:34.633Z,61.19
2023-02-04T17:51:02.443Z,61.13
2023-02-04T17:53:30.826Z,60.25
2023-02-04T17:55:58.658Z,60.12
2023-02-04T17:58:30.866Z,59.48
2023-02-04T18:01:00.226Z,59.91
2023-02-04T18:03:30.389Z,59.20
2023-02-04T18:05:58.451Z,58.35
2023-02-04T18:08:31.727Z,58.93
2023-02-04T18:10:59.750Z,59.70
2023-02-04T18:13:32.811Z,61.09
2023-02-04T18:16:02.831Z,62.00
2023-02-04T18:18:35.821Z,61.88
2023-02-04T18:21:17.906Z,61.03
2023-02-04T18:23:46.400Z,60.83
2023-02-04T18:26:18.893Z,60.68
2023-02-04T18:28:49.666Z,61.81
2023-02-04T18:31:34.038Z,62.25
2023-02-04T18:34:02.516Z,62.38
2023-02-04T18:36:33.398Z,61.30
2023-02-04T18:39:14.025Z,62.37
2023-02-04T18:41:45.024Z,63.57
2023-02-04T18:44:31.343Z,63.13
2023-02-04T18:47:00.623Z,65.03
2023-02-04T18:49:29.564Z,66.26
2023-02-04T18:51:59.608Z,66.96
2023-02-04T18:54:30.765Z,67.08
2023-02-04T18:57:28.721Z,67.56
2023-02-04T19:00:23.620Z,66.62
2023-02-04T19:02:54.926Z,65.65
2023-02-04T19:05:34.425Z,65.24
2023-02-04T19:08:22.549Z,63.79
2023-02-04T19:10:51.406Z,64.25
2023-02-04T19:13:22.131Z,65.31
2023-02-04T19:16:04.148Z,64.74
2023-02-04T19:18:38.314Z,66.23
2023-02-04T19:21:22.700Z,65.64
2023-02-04T19:23:52.085Z,65.79
2023-02-04T19:26:36.699Z,65.21
2023-02-04T19:29:43.055Z,66.36
2023-02-04T19:32:45.321Z,67.11
2023-02-04T19:35:19.763Z,66.48
2023-02-04T19:37:54.532Z,67.24
2023-02-04T19:40:29.832Z,67.91
2023-02-04T19:43:16.800Z,68.49
2023-02-04T19:45:46.447Z,67.46
2023-02-04T19:48:22.619Z,67.10
2023-02-04T19:50:53.625Z,67.77
2023-02-04T19:53:22.829Z,67.66
2023-02-04T19:55:52.546Z,69.09
2023-02-04T19:58:22.613Z,69.57
2023-02-04T20:00:57.476Z,68.49
2023-02-04T20:03:35.847Z,67.96
2023-02-04T20:06:30.162Z,67.23
2023-02-04T20:09:02.643Z,68.17
2023-02-04T20:11:44.978Z,67.39
2023-02-04T20:14:24.213Z,67.45
2023-02-04T20:16:54.146Z,67.32
2023-02-04T20:19:28.918Z,66.62
2023-02-04T20:22:05.544Z,66.43
2023-02-04T20:24:36.812Z,67.16
2023-02-04T20:27:17.960Z,66.70
2023-02-04T20:29:46.120Z,67.07
2023-02-04T20:32:21.297Z,66.45
2023-02-04T20:34:50.460Z,66.81
2023-02-04T20:37:26.786Z,66.12
2023-02-04T20:39:55.174Z,66.25
2023-02-04T20:42:34.797Z,66.53
2023-02-04T20:45:27.702Z,66.20
2023-02-04T20:47:59.942Z,67.24
2023-02-04T20:50:38.122Z,67.22
2023-02-04T20:53:08.808Z,66.92
2023-02-04T20:55:39.494Z,66.99
2023-02-04T20:58:16.811Z,67.11
2023-02-04T21:00:46.091Z,67.44
2023-02-04T21:03:26.500Z,66.29
2023-02-04T21:05:57.263Z,65.92
2023-02-04T21:08:29.366Z,65.66
2023-02-04T21:10:58.033Z,66.63
2023-02-04T21:13:26.623Z,67.27
2023-02-04T21:15:54.800Z,66.69
2023-02-04T21:18:22.870Z,66.38
2023-02-04T21:20:50.639Z,66.31
2023-02-04T21:23:20.232Z,65.96
2023-02-04T21:25:48.201Z,66.53
2023-02-04T21:28:16.215Z,67.66
2023-02-04T21:30:44.136Z,66.61
2023-02-04T21:33:12.032Z,64.75
2023-02-04T21:35:40.178Z,64.72
2023-02-04T21:38:08.708Z,63.95
2023-02-04T21:40:38.963Z,64.38
2023-02-04T21:43:08.163Z,65.44
2023-02-04T21:45:37.276Z,65.09
2023-02-04T21:48:05.929Z,64.28
2023-02-04T21:50:34.330Z,64.39
2023-02-04T21:53:02.212Z,64.36
2023-02-04T21:55:30.114Z,64.88
2023-02-04T21:57:59.325Z,64.07
2023-02-04T22:00:35.691Z,63.46
2023-02-04T22:03:03.664Z,63.20
2023-02-04T22:05:31.582Z,63.16
2023-02-04T22:07:59.963Z,64.32
2023-02-04T22:10:27.853Z,63.99
2023-02-04T22:12:55.878Z,63.35
2023-02-04T22:15:24.304Z,64.37
2023-02-04T22:17:54.456Z,64.21
2023-02-04T22:20:25.217Z,64.42
2023-02-04T22:22:53.822Z,64.02
2023-02-04T22:25:22.298Z,63.87
2023-02-04T22:27:50.527Z,63.88
2023-02-04T22:30:19.858Z,64.66
2023-02-04T22:32:47.927Z,64.89
2023-02-04T22:35:17.328Z,64.24
2023-02-04T22:37:45.123Z,63.67
2023-02-04T22:40:13.745Z,65.19
2023-02-04T22:42:41.832Z,64.18
2023-02-04T22:45:11.220Z,63.70
2023-02-04T22:47:39.538Z,62.92
2023-02-04T22:50:08.203Z,63.49
2023-02-04T22:52:37.438Z,63.78
2023-02-04T22:55:05.877Z,64.10
2023-02-04T22:57:33.627Z,63.27
2023-02-04T23:00:01.415Z,63.35
2023-02-04T23:02:29.224Z,63.54
2023-02-04T23:04:57.145Z,63.82
2023-02-04T23:07:24.944Z,63.45
2023-02-04T23:09:54.111Z,64.21
2023-02-04T23:12:21.863Z,63.70
2023-02-04T23:14:50.105Z,63.45
2023-02-04T23:17:19.156Z,63.31
2023-02-04T23:19:47.108Z,62.85
2023-02-04T23:22:15.636Z,63.29
2023-02-04T23:24:44.287Z,64.32
2023-02-04T23:27:13.793Z,65.62
2023-02-04T23:29:41.778Z,64.73
2023-02-04T23:32:10.206Z,65.14
2023-02-04T23:34:38.076Z,64.14
2023-02-04T23:37:05.910Z,63.77
2023-02-04T23:39:34.175Z,64.91
2023-02-04T23:42:02.014Z,64.98
2023-02-04T23:44:31.228Z,64.57
2023-02-04T23:46:59.161Z,63.91
2023-02-04T23:49:26.927Z,64.37
2023-02-04T23:51:54.754Z,65.42
2023-02-04T23:54:23.609Z,65.11
2023-02-04T23:56:52.024Z,64.33
2023-02-04T23:59:19.975Z,64.47
